createdAt,value
2023-01-19T00:00:51.552Z,2.28
2023-01-19T00:03:18.585Z,2.70
2023-01-19T00:05:46.636Z,2.40
2023-01-19T00:08:16.448Z,2.20
2023-01-19T00:10:51.532Z,2.25
2023-01-19T00:13:18.969Z,2.33
2023-01-19T00:15:45.850Z,2.33
2023-01-19T00:18:12.541Z,2.10
2023-01-19T00:20:40.367Z,2.78
2023-01-19T00:23:08.256Z,2.58
2023-01-19T00:25:35.653Z,2.60
2023-01-19T00:28:02.273Z,2.60
2023-01-19T00:30:29.062Z,3.00
2023-01-19T00:32:56.429Z,2.17
2023-01-19T00:35:23.075Z,2.50
2023-01-19T00:37:49.748Z,2.45
2023-01-19T00:40:17.471Z,2.40
2023-01-19T00:42:44.646Z,1.75
2023-01-19T00:45:21.443Z,2.92
2023-01-19T00:47:50.202Z,2.58
2023-01-19T00:50:17.454Z,2.08
2023-01-19T00:52:45.736Z,1.77
2023-01-19T00:55:14.870Z,2.35
2023-01-19T00:57:42.401Z,2.33
2023-01-19T01:00:13.534Z,2.80
2023-01-19T01:02:42.616Z,2.15
2023-01-19T01:05:10.928Z,2.20
2023-01-19T01:07:41.275Z,2.33
2023-01-19T01:10:11.493Z,2.70
2023-01-19T01:12:39.042Z,1.92
2023-01-19T01:15:07.978Z,2.88
2023-01-19T01:17:34.675Z,3.13
2023-01-19T01:20:01.304Z,2.80
2023-01-19T01:22:28.204Z,1.70
2023-01-19T01:24:54.861Z,2.47
2023-01-19T01:27:21.491Z,2.33
2023-01-19T01:29:48.152Z,2.00
2023-01-19T01:32:15.880Z,2.50
2023-01-19T01:34:42.792Z,2.08
2023-01-19T01:37:09.411Z,1.98
2023-01-19T01:39:36.221Z,1.90
2023-01-19T01:42:14.613Z,2.13
2023-01-19T01:44:56.677Z,2.03
2023-01-19T01:47:42.313Z,2.00
2023-01-19T01:50:14.243Z,2.05
2023-01-19T01:53:06.512Z,2.20
2023-01-19T01:55:38.108Z,2.28
2023-01-19T01:58:06.039Z,1.85
2023-01-19T02:00:52.853Z,2.10
2023-01-19T02:03:20.262Z,1.88
2023-01-19T02:05:47.100Z,2.08
2023-01-19T02:08:47.894Z,2.00
2023-01-19T02:11:33.401Z,2.75
2023-01-19T02:14:00.092Z,1.70
2023-01-19T02:16:27.216Z,1.98
2023-01-19T02:18:53.891Z,2.17
2023-01-19T02:21:23.474Z,2.00
2023-01-19T02:23:55.765Z,1.73
2023-01-19T02:26:29.715Z,2.40
2023-01-19T02:29:08.646Z,2.25
2023-01-19T02:31:37.747Z,1.83
2023-01-19T02:34:06.243Z,1.98
2023-01-19T02:36:38.939Z,1.50
2023-01-19T02:39:08.538Z,2.00
2023-01-19T02:41:40.872Z,1.90
2023-01-19T02:44:09.676Z,1.65
2023-01-19T02:46:38.340Z,2.00
2023-01-19T02:49:04.948Z,1.58
2023-01-19T02:51:32.274Z,2.25
2023-01-19T02:54:04.748Z,1.80
2023-01-19T02:56:44.127Z,1.40
2023-01-19T02:59:28.220Z,1.48
2023-01-19T03:02:11.418Z,1.92
2023-01-19T03:04:48.212Z,2.05
2023-01-19T03:07:21.249Z,2.10
2023-01-19T03:10:12.254Z,1.60
2023-01-19T03:12:48.281Z,2.42
2023-01-19T03:15:27.536Z,2.30
2023-01-19T03:17:54.727Z,2.20
2023-01-19T03:20:25.547Z,2.03
2023-01-19T03:23:00.634Z,2.40
2023-01-19T03:25:31.405Z,2.05
2023-01-19T03:27:58.301Z,2.28
2023-01-19T03:30:32.941Z,2.05
2023-01-19T03:33:12.229Z,1.83
2023-01-19T03:35:44.712Z,1.73
2023-01-19T03:38:16.735Z,1.80
2023-01-19T03:40:45.731Z,1.48
2023-01-19T03:43:16.639Z,1.90
2023-01-19T03:45:44.246Z,1.80
2023-01-19T03:48:11.019Z,1.40
2023-01-19T03:50:37.745Z,1.58
2023-01-19T03:53:10.272Z,1.90
2023-01-19T03:55:39.642Z,1.85
2023-01-19T03:58:06.877Z,2.72
2023-01-19T04:00:34.686Z,1.70
2023-01-19T04:03:01.655Z,2.08
2023-01-19T04:05:29.476Z,2.00
2023-01-19T04:07:56.127Z,1.58
2023-01-19T04:10:24.022Z,1.75
2023-01-19T04:12:58.700Z,1.48
2023-01-19T04:15:26.746Z,1.50
2023-01-19T04:17:53.428Z,1.42
2023-01-19T04:20:21.752Z,1.52
2023-01-19T04:22:49.667Z,1.27
2023-01-19T04:25:16.618Z,1.65
2023-01-19T04:27:43.279Z,1.60
2023-01-19T04:30:10.643Z,1.95
2023-01-19T04:32:37.251Z,1.80
2023-01-19T04:35:04.056Z,2.45
2023-01-19T04:37:30.709Z,1.80
2023-01-19T04:39:57.414Z,1.45
2023-01-19T04:42:24.379Z,1.70
2023-01-19T04:44:52.612Z,2.00
2023-01-19T04:47:20.406Z,1.45
2023-01-19T04:49:49.104Z,1.95
2023-01-19T04:52:15.727Z,1.73
2023-01-19T04:54:42.337Z,2.20
2023-01-19T04:57:08.958Z,2.20
2023-01-19T04:59:35.734Z,1.77
2023-01-19T05:02:02.429Z,2.13
2023-01-19T05:04:29.151Z,2.00
2023-01-19T05:06:56.076Z,2.15
2023-01-19T05:09:22.676Z,2.00
2023-01-19T05:11:49.308Z,2.03
2023-01-19T05:14:16.452Z,2.00
2023-01-19T05:16:43.088Z,2.13
2023-01-19T05:19:09.687Z,1.92
2023-01-19T05:21:36.316Z,1.58
2023-01-19T05:24:03.039Z,2.10
2023-01-19T05:26:29.702Z,2.00
2023-01-19T05:28:56.864Z,1.73
2023-01-19T05:31:23.711Z,2.20
2023-01-19T05:33:50.509Z,1.95
2023-01-19T05:36:17.148Z,2.08
2023-01-19T05:38:43.781Z,2.50
2023-01-19T05:41:10.913Z,2.42
2023-01-19T05:43:37.548Z,3.05
2023-01-19T05:46:06.269Z,2.63
2023-01-19T05:48:32.929Z,3.00
2023-01-19T05:51:01.382Z,2.58
2023-01-19T05:53:28.905Z,3.13
2023-01-19T05:56:01.333Z,2.67
2023-01-19T05:58:28.839Z,3.47
2023-01-19T06:00:55.742Z,3.00
2023-01-19T06:03:22.407Z,2.65
2023-01-19T06:05:49.082Z,2.80
2023-01-19T06:08:15.710Z,3.72
2023-01-19T06:10:44.931Z,3.33
2023-01-19T06:13:11.874Z,3.10
2023-01-19T06:15:38.550Z,3.10
2023-01-19T06:18:05.648Z,3.72
2023-01-19T06:20:32.446Z,3.00
2023-01-19T06:22:59.759Z,3.38
2023-01-19T06:25:26.649Z,3.25
2023-01-19T06:27:53.423Z,2.63
2023-01-19T06:30:20.389Z,2.92
2023-01-19T06:32:47.781Z,4.80
2023-01-19T06:35:14.837Z,4.28
2023-01-19T06:37:41.518Z,2.90
2023-01-19T06:40:09.393Z,2.90
2023-01-19T06:42:36.562Z,3.17
2023-01-19T06:45:03.575Z,2.50
2023-01-19T06:47:30.836Z,2.55
2023-01-19T06:49:57.629Z,3.08
2023-01-19T06:52:24.301Z,3.45
2023-01-19T06:54:50.988Z,2.60
2023-01-19T06:57:17.776Z,3.22
2023-01-19T06:59:44.596Z,2.47
2023-01-19T07:02:26.178Z,2.83
2023-01-19T07:04:54.894Z,3.08
2023-01-19T07:07:21.575Z,2.90
2023-01-19T07:09:54.111Z,2.58
2023-01-19T07:12:22.177Z,2.85
2023-01-19T07:14:49.801Z,3.38
2023-01-19T07:17:16.807Z,2.55
2023-01-19T07:19:43.475Z,2.78
2023-01-19T07:22:10.253Z,2.70
2023-01-19T07:24:38.079Z,2.35
2023-01-19T07:27:05.467Z,3.05
2023-01-19T07:29:32.153Z,3.15
2023-01-19T07:31:58.836Z,4.03
2023-01-19T07:34:25.484Z,3.00
2023-01-19T07:36:52.093Z,2.50
2023-01-19T07:39:18.781Z,2.55
2023-01-19T07:41:45.445Z,2.45
2023-01-19T07:44:12.194Z,2.70
2023-01-19T07:46:38.837Z,2.65
2023-01-19T07:49:05.576Z,3.58
2023-01-19T07:51:32.325Z,3.53
2023-01-19T07:53:58.969Z,3.22
2023-01-19T07:56:27.812Z,3.05
2023-01-19T07:58:55.229Z,3.40
2023-01-19T08:01:22.764Z,2.72
2023-01-19T08:03:50.376Z,2.78
2023-01-19T08:06:21.887Z,3.13
2023-01-19T08:08:48.653Z,2.15
2023-01-19T08:11:15.462Z,2.50
2023-01-19T08:13:42.992Z,2.08
2023-01-19T08:16:10.531Z,2.35
2023-01-19T08:18:37.246Z,2.50
2023-01-19T08:21:04.560Z,2.42
2023-01-19T08:23:31.335Z,2.70
2023-01-19T08:25:57.972Z,3.25
2023-01-19T08:28:24.911Z,2.25
2023-01-19T08:30:54.711Z,2.50
2023-01-19T08:33:23.225Z,2.13
2023-01-19T08:35:53.990Z,3.10
2023-01-19T08:38:20.772Z,2.20
2023-01-19T08:40:48.764Z,2.55
2023-01-19T08:43:16.995Z,3.20
2023-01-19T08:45:48.221Z,2.72
2023-01-19T08:48:17.727Z,2.33
2023-01-19T08:50:48.228Z,3.67
2023-01-19T08:53:16.104Z,1.90
2023-01-19T08:55:42.780Z,2.38
2023-01-19T08:58:09.875Z,1.75
2023-01-19T09:00:38.114Z,1.95
2023-01-19T09:03:07.330Z,2.00
2023-01-19T09:05:37.465Z,1.80
2023-01-19T09:08:09.676Z,2.10
2023-01-19T09:10:39.277Z,1.60
2023-01-19T09:13:09.650Z,1.75
2023-01-19T09:18:25.422Z,3.30
2023-01-19T09:20:52.116Z,2.47
2023-01-19T09:23:20.367Z,1.80
2023-01-19T09:25:48.129Z,2.10
2023-01-19T09:28:17.616Z,2.20
2023-01-19T09:30:44.979Z,1.77
2023-01-19T09:33:17.700Z,1.90
2023-01-19T09:35:46.195Z,1.73
2023-01-19T09:38:15.409Z,2.15
2023-01-19T09:40:44.197Z,2.05
2023-01-19T09:43:48.237Z,1.27
2023-01-19T09:46:36.155Z,1.90
2023-01-19T09:49:12.880Z,1.70
2023-01-19T09:51:43.800Z,2.15
2023-01-19T09:54:50.090Z,2.35
2023-01-19T09:57:16.785Z,2.00
2023-01-19T09:59:43.998Z,1.58
2023-01-19T10:02:23.344Z,2.55
2023-01-19T10:05:39.904Z,3.25
2023-01-19T10:08:19.406Z,1.80
2023-01-19T10:10:52.084Z,1.95
2023-01-19T10:13:25.170Z,1.60
2023-01-19T10:16:19.382Z,1.80
2023-01-19T10:18:47.970Z,2.00
2023-01-19T10:21:24.930Z,1.50
2023-01-19T10:24:00.205Z,1.88
2023-01-19T10:26:43.838Z,1.85
2023-01-19T10:29:36.395Z,2.08
2023-01-19T10:32:11.854Z,1.75
2023-01-19T10:34:38.746Z,2.08
2023-01-19T10:37:18.116Z,2.08
2023-01-19T10:39:53.817Z,2.83
2023-01-19T10:42:20.815Z,3.00
2023-01-19T10:44:49.211Z,2.38
2023-01-19T10:47:21.260Z,2.00
2023-01-19T10:49:49.149Z,2.63
2023-01-19T10:52:49.549Z,2.40
2023-01-19T10:55:38.181Z,2.42
2023-01-19T10:58:06.931Z,1.95
2023-01-19T11:00:41.295Z,2.30
2023-01-19T11:03:31.351Z,2.47
2023-01-19T11:06:16.201Z,3.03
2023-01-19T11:08:44.323Z,2.83
2023-01-19T11:11:12.658Z,2.60
2023-01-19T11:13:41.277Z,2.30
2023-01-19T11:16:31.664Z,2.60
2023-01-19T11:19:02.062Z,2.83
2023-01-19T11:21:30.640Z,3.10
2023-01-19T11:24:00.712Z,2.42
2023-01-19T11:26:33.524Z,3.58
2023-01-19T11:29:03.456Z,2.67
2023-01-19T11:31:30.046Z,3.25
2023-01-19T11:34:05.671Z,2.90
2023-01-19T11:36:35.669Z,2.08
2023-01-19T11:39:28.265Z,3.08
2023-01-19T11:42:03.075Z,2.35
2023-01-19T11:44:50.491Z,2.83
2023-01-19T11:47:42.601Z,2.50
2023-01-19T11:50:15.043Z,1.95
2023-01-19T11:52:44.576Z,2.45
2023-01-19T11:55:22.057Z,2.00
2023-01-19T11:57:52.832Z,2.60
2023-01-19T12:00:25.016Z,1.40
2023-01-19T12:03:15.672Z,2.67
2023-01-19T12:05:48.416Z,2.25
2023-01-19T12:08:20.761Z,3.13
2023-01-19T12:10:50.847Z,3.15
2023-01-19T12:13:26.511Z,3.05
2023-01-19T12:16:22.471Z,2.35
2023-01-19T12:19:14.580Z,2.45
2023-01-19T12:21:41.771Z,2.70
2023-01-19T12:24:23.896Z,2.33
2023-01-19T12:26:57.131Z,2.33
2023-01-19T12:29:32.183Z,6.65
2023-01-19T12:32:14.254Z,2.42
2023-01-19T12:34:42.975Z,2.42
2023-01-19T12:37:28.895Z,2.47
2023-01-19T12:39:59.138Z,2.30
2023-01-19T12:42:28.295Z,2.58
2023-01-19T12:45:25.805Z,2.88
2023-01-19T12:47:53.961Z,2.92
2023-01-19T12:50:25.739Z,2.80
2023-01-19T12:53:03.636Z,3.17
2023-01-19T12:55:33.330Z,2.58
2023-01-19T12:58:24.197Z,3.20
2023-01-19T13:01:15.329Z,2.95
2023-01-19T13:03:59.219Z,2.58
2023-01-19T13:06:58.252Z,3.35
2023-01-19T13:09:32.139Z,2.80
2023-01-19T13:12:23.086Z,3.40
2023-01-19T13:14:50.995Z,2.97
2023-01-19T13:17:26.638Z,4.28
2023-01-19T13:20:03.122Z,3.35
2023-01-19T13:22:50.143Z,3.17
2023-01-19T13:25:29.204Z,2.88
2023-01-19T13:27:56.893Z,3.42
2023-01-19T13:30:28.301Z,2.90
2023-01-19T13:33:10.474Z,2.33
2023-01-19T13:35:37.617Z,2.47
2023-01-19T13:38:05.914Z,3.13
2023-01-19T13:40:41.920Z,1.50
2023-01-19T13:43:18.378Z,2.30
2023-01-19T13:45:53.377Z,2.38
2023-01-19T13:48:24.936Z,1.60
2023-01-19T13:51:06.417Z,1.30
2023-01-19T13:53:34.253Z,1.45
2023-01-19T13:56:18.377Z,1.50
2023-01-19T13:58:59.546Z,1.75
2023-01-19T14:01:29.232Z,1.50
2023-01-19T14:03:57.314Z,1.00
2023-01-19T14:06:45.647Z,3.72
2023-01-19T14:09:20.045Z,1.23
2023-01-19T14:12:14.850Z,3.28
2023-01-19T14:14:44.674Z,1.30
2023-01-19T14:17:28.232Z,1.55
2023-01-19T14:20:01.119Z,1.58
2023-01-19T14:22:38.664Z,1.50
2023-01-19T14:25:35.608Z,1.80
2023-01-19T14:28:39.398Z,1.50
2023-01-19T14:31:23.016Z,1.60
2023-01-19T14:33:53.222Z,1.67
2023-01-19T14:36:39.382Z,1.95
2023-01-19T14:39:17.857Z,1.60
2023-01-19T14:41:49.240Z,1.35
2023-01-19T14:44:24.524Z,1.52
2023-01-19T14:46:51.345Z,1.60
2023-01-19T14:49:28.094Z,1.60
2023-01-19T14:51:56.090Z,2.17
2023-01-19T14:54:33.771Z,1.50
2023-01-19T14:57:00.445Z,1.45
2023-01-19T14:59:27.478Z,1.38
2023-01-19T15:01:54.374Z,1.48
2023-01-19T15:04:21.260Z,1.40
2023-01-19T15:06:48.528Z,1.00
2023-01-19T15:09:17.350Z,0.77
2023-01-19T15:11:46.998Z,1.30
2023-01-19T15:14:15.460Z,1.02
2023-01-19T15:16:42.845Z,0.98
2023-01-19T15:19:12.100Z,1.13
2023-01-19T15:21:42.202Z,1.80
2023-01-19T15:24:10.813Z,1.27
2023-01-19T15:26:39.900Z,0.90
2023-01-19T15:29:24.624Z,1.15
2023-01-19T15:31:52.560Z,1.30
2023-01-19T15:34:19.255Z,1.50
2023-01-19T15:36:45.948Z,1.13
2023-01-19T15:39:12.600Z,1.63
2023-01-19T15:41:40.512Z,1.52
2023-01-19T15:44:10.848Z,1.23
2023-01-19T15:46:38.111Z,1.00
2023-01-19T15:49:05.862Z,1.58
2023-01-19T15:51:33.421Z,1.20
2023-01-19T15:54:00.394Z,1.00
2023-01-19T15:56:29.764Z,1.42
2023-01-19T15:58:58.788Z,1.42
2023-01-19T16:01:31.502Z,1.55
2023-01-19T16:04:01.447Z,1.55
2023-01-19T16:06:29.027Z,1.25
2023-01-19T16:08:59.809Z,1.15
2023-01-19T16:11:29.984Z,1.20
2023-01-19T16:13:56.766Z,1.33
2023-01-19T16:16:25.319Z,1.23
2023-01-19T16:18:52.356Z,1.30
2023-01-19T16:21:21.124Z,1.10
2023-01-19T16:23:47.789Z,1.70
2023-01-19T16:26:28.448Z,1.55
2023-01-19T16:29:07.959Z,2.38
2023-01-19T16:31:37.007Z,1.38
2023-01-19T16:34:04.895Z,1.65
2023-01-19T16:36:33.643Z,1.50
2023-01-19T16:39:02.514Z,1.98
2023-01-19T16:41:29.928Z,1.50
2023-01-19T16:43:58.206Z,1.48
2023-01-19T16:46:27.990Z,1.50
2023-01-19T16:48:59.967Z,1.52
2023-01-19T16:51:26.782Z,1.45
2023-01-19T16:53:53.411Z,1.30
2023-01-19T16:56:20.571Z,1.15
2023-01-19T16:58:47.454Z,1.30
2023-01-19T17:01:20.367Z,1.75
2023-01-19T17:03:47.822Z,1.23
2023-01-19T17:06:22.698Z,1.48
2023-01-19T17:08:50.995Z,1.60
2023-01-19T17:11:21.313Z,2.13
2023-01-19T17:13:57.841Z,1.70
2023-01-19T17:16:25.224Z,1.35
2023-01-19T17:18:52.718Z,1.63
2023-01-19T17:21:20.308Z,2.03
2023-01-19T17:23:49.019Z,1.92
2023-01-19T17:26:17.075Z,2.05
2023-01-19T17:29:08.297Z,2.03
2023-01-19T17:32:11.526Z,1.73
2023-01-19T17:34:38.613Z,2.28
2023-01-19T17:37:05.335Z,2.00
2023-01-19T17:39:32.192Z,2.03
2023-01-19T17:41:58.843Z,1.90
2023-01-19T17:44:25.731Z,2.38
2023-01-19T17:46:53.799Z,3.17
2023-01-19T17:49:20.946Z,2.03
2023-01-19T17:51:51.978Z,2.95
2023-01-19T17:54:18.719Z,2.08
2023-01-19T17:56:46.762Z,2.63
2023-01-19T17:59:13.526Z,2.10
2023-01-19T18:01:43.316Z,2.13
2023-01-19T18:04:12.349Z,2.75
2023-01-19T18:06:39.281Z,2.78
2023-01-19T18:09:07.489Z,2.58
2023-01-19T18:11:35.052Z,2.53
2023-01-19T18:14:02.243Z,2.50
2023-01-19T18:16:29.673Z,2.30
2023-01-19T18:18:57.403Z,2.38
2023-01-19T18:21:27.421Z,2.72
2023-01-19T18:24:02.450Z,3.33
2023-01-19T18:26:29.783Z,2.83
2023-01-19T18:28:57.503Z,3.47
2023-01-19T18:31:26.057Z,2.88
2023-01-19T18:33:53.093Z,3.33
2023-01-19T18:36:20.291Z,3.17
2023-01-19T18:38:47.756Z,5.35
2023-01-19T18:41:17.363Z,4.40
2023-01-19T18:43:44.862Z,3.53
2023-01-19T18:46:11.732Z,6.75
2023-01-19T18:48:39.903Z,4.68
2023-01-19T18:51:11.016Z,2.95
2023-01-19T18:53:38.582Z,2.67
2023-01-19T18:56:06.053Z,2.50
2023-01-19T18:58:38.337Z,2.40
2023-01-19T19:01:15.691Z,2.83
2023-01-19T19:03:48.773Z,2.28
2023-01-19T19:06:17.202Z,2.40
2023-01-19T19:08:44.462Z,3.45
2023-01-19T19:11:20.192Z,2.28
2023-01-19T19:13:51.121Z,2.25
2023-01-19T19:16:24.320Z,2.03
2023-01-19T19:18:51.479Z,2.47
2023-01-19T19:21:28.805Z,2.75
2023-01-19T19:23:59.439Z,2.05
2023-01-19T19:26:28.191Z,2.40
2023-01-19T19:28:55.250Z,2.55
2023-01-19T19:31:25.830Z,2.72
2023-01-19T19:33:52.653Z,2.35
2023-01-19T19:36:20.274Z,2.60
2023-01-19T19:38:47.920Z,2.28
2023-01-19T19:41:53.015Z,2.58
2023-01-19T19:47:13.994Z,3.17
2023-01-19T19:49:40.969Z,2.92
2023-01-19T19:52:08.078Z,3.25
2023-01-19T19:54:34.724Z,3.33
2023-01-19T19:57:01.415Z,2.92
2023-01-19T19:59:28.169Z,2.58
2023-01-19T20:01:55.191Z,2.40
2023-01-19T20:04:26.405Z,3.08
2023-01-19T20:06:53.742Z,2.60
2023-01-19T20:09:20.388Z,2.45
2023-01-19T20:11:49.070Z,2.90
2023-01-19T20:14:18.278Z,2.90
2023-01-19T20:16:45.572Z,2.17
2023-01-19T20:19:18.027Z,2.80
2023-01-19T20:21:44.879Z,2.83
2023-01-19T20:24:20.926Z,2.17
2023-01-19T20:26:57.051Z,2.47
2023-01-19T20:29:26.777Z,3.15
2023-01-19T20:31:55.829Z,2.65
2023-01-19T20:34:26.392Z,2.60
2023-01-19T20:36:54.427Z,2.90
2023-01-19T20:39:23.676Z,3.88
2023-01-19T20:41:51.423Z,2.60
2023-01-19T20:44:21.469Z,2.72
2023-01-19T20:47:00.170Z,2.97
2023-01-19T20:49:30.960Z,2.15
2023-01-19T20:51:58.037Z,2.20
2023-01-19T20:54:27.513Z,3.10
2023-01-19T20:56:54.547Z,2.55
2023-01-19T20:59:21.808Z,2.00
2023-01-19T21:01:49.398Z,2.28
2023-01-19T21:04:17.196Z,2.03
2023-01-19T21:06:44.290Z,1.70
2023-01-19T21:09:16.366Z,1.40
2023-01-19T21:11:43.016Z,2.20
2023-01-19T21:14:09.805Z,1.48
2023-01-19T21:16:37.487Z,1.45
2023-01-19T21:19:05.143Z,1.67
2023-01-19T21:21:33.267Z,1.40
2023-01-19T21:24:02.529Z,1.63
2023-01-19T21:26:41.718Z,1.10
2023-01-19T21:29:40.959Z,0.90
2023-01-19T21:32:29.702Z,1.13
2023-01-19T21:38:52.347Z,1.67
2023-01-19T21:42:10.938Z,1.00
2023-01-19T21:45:07.440Z,1.33
2023-01-19T21:47:37.062Z,1.30
2023-01-19T21:50:04.565Z,1.10
2023-01-19T21:52:31.232Z,1.33
2023-01-19T21:54:57.896Z,1.13
2023-01-19T21:57:24.524Z,1.10
2023-01-19T21:59:53.041Z,1.77
2023-01-19T22:02:33.272Z,1.50
2023-01-19T22:05:06.599Z,1.15
2023-01-19T22:07:33.387Z,1.02
2023-01-19T22:10:00.092Z,1.17
2023-01-19T22:12:26.987Z,1.13
2023-01-19T22:14:53.844Z,2.08
2023-01-19T22:17:21.025Z,1.45
2023-01-19T22:19:48.491Z,1.20
2023-01-19T22:22:15.460Z,1.45
2023-01-19T22:24:46.570Z,1.83
2023-01-19T22:27:13.547Z,2.55
2023-01-19T22:29:40.167Z,1.42
2023-01-19T22:32:07.076Z,1.85
2023-01-19T22:34:33.929Z,1.70
2023-01-19T22:37:00.883Z,1.80
2023-01-19T22:39:28.100Z,1.40
2023-01-19T22:41:54.798Z,1.73
2023-01-19T22:44:22.440Z,1.48
2023-01-19T22:46:50.602Z,1.27
2023-01-19T22:49:18.200Z,1.65
2023-01-19T22:51:45.499Z,2.13
2023-01-19T22:54:12.656Z,1.40
2023-01-19T22:56:40.397Z,1.27
2023-01-19T22:59:07.253Z,1.42
2023-01-19T23:01:39.648Z,1.27
2023-01-19T23:04:07.472Z,1.00
2023-01-19T23:06:35.960Z,1.15
2023-01-19T23:09:06.269Z,1.17
2023-01-19T23:11:38.964Z,1.27
2023-01-19T23:14:07.448Z,1.48
2023-01-19T23:16:35.299Z,1.20
2023-01-19T23:19:02.230Z,1.30
2023-01-19T23:21:30.739Z,1.45
2023-01-19T23:24:00.154Z,1.17
2023-01-19T23:26:27.443Z,1.52
2023-01-19T23:28:56.710Z,1.85
2023-01-19T23:31:29.061Z,1.48
2023-01-19T23:34:01.239Z,1.40
2023-01-19T23:36:30.932Z,1.65
2023-01-19T23:39:00.368Z,1.40
2023-01-19T23:41:29.257Z,1.27
2023-01-19T23:43:56.000Z,1.67
2023-01-19T23:46:22.787Z,1.55
2023-01-19T23:48:50.590Z,1.58
2023-01-19T23:51:20.196Z,1.48
2023-01-19T23:53:47.846Z,1.70
2023-01-19T23:56:20.855Z,1.83
2023-01-19T23:58:52.219Z,1.05
